Time;durP1;ratioP1;P1;durP2;ratioP2;P2;SDS_P1;SDS_P2;PMS_P1;PMS_P2;Temp;Humidity;BMP_temperature;BMP_pressure;BME280_temperature;BME280_humidity;BME280_pressure;Samples;Min_cycle;Max_cycle;Signal;HPM_P1;HPM_P2
2024/03/17 00:08:16;;;;;;;9.33;3.97;;;6.50;10.40;;;;;;20523414;28;20458;-48
2024/03/17 00:18:17;;;;;;;15.90;4.37;;;6.50;9.40;;;;;;20516596;28;20477;-47
2024/03/17 00:28:18;;;;;;;14.70;4.10;;;6.40;7.40;;;;;;20601310;28;20473;-48
2024/03/17 00:38:18;;;;;;;9.23;3.75;;;6.50;4.10;;;;;;20571918;28;20617;-48
2024/03/17 00:48:19;;;;;;;9.80;3.80;;;6.50;1.00;;;;;;20589210;28;20072;-48
2024/03/17 00:58:20;;;;;;;12.30;4.75;;;6.70;1.00;;;;;;20588371;28;20450;-48
2024/03/17 01:08:21;;;;;;;13.20;4.70;;;6.80;1.00;;;;;;20587991;28;20077;-47
2024/03/17 01:18:22;;;;;;;12.70;5.70;;;6.90;1.00;;;;;;20589013;28;20042;-48
2024/03/17 01:28:23;;;;;;;13.13;5.90;;;6.90;1.00;;;;;;20589765;28;20446;-48
2024/03/17 01:38:24;;;;;;;11.82;5.68;;;6.90;1.00;;;;;;20584173;28;20485;-48
2024/03/17 01:48:26;;;;;;;21.27;7.17;;;6.90;1.00;;;;;;20577246;28;20108;-48
2024/03/17 01:58:29;;;;;;;9.77;5.63;;;6.90;1.00;;;;;;20570315;28;21040;-48
2024/03/17 02:08:50;;;;;;;11.88;5.75;;;6.80;1.00;;;;;;20586002;28;20569;-48
2024/03/17 02:18:58;;;;;;;10.32;5.05;;;7.00;1.00;;;;;;20588228;28;20038;-48
2024/03/17 02:28:59;;;;;;;11.85;5.82;;;7.00;1.00;;;;;;20594613;28;20040;-48
2024/03/17 02:49:19;;;;;;;11.68;6.60;;;7.20;1.00;;;;;;20590863;28;20050;-48
2024/03/17 02:59:19;;;;;;;12.10;6.67;;;7.30;1.00;;;;;;20561036;28;20125;-47
2024/03/17 03:09:25;;;;;;;10.85;6.63;;;7.40;1.00;;;;;;20587151;28;20552;-47
2024/03/17 03:19:27;;;;;;;12.02;7.10;;;7.50;1.00;;;;;;20579743;28;20407;-48
2024/03/17 03:29:28;;;;;;;11.85;7.38;;;7.50;1.00;;;;;;20589956;28;20124;-48
2024/03/17 04:50:54;;;;;;;12.98;7.47;;;7.40;1.00;;;;;;21626371;22;20037;-49
2024/03/17 05:00:55;;;;;;;15.60;7.78;;;7.40;1.00;;;;;;20981785;22;20125;-47
2024/03/17 05:11:00;;;;;;;14.70;8.73;;;7.40;1.00;;;;;;21004377;22;20509;-47
2024/03/17 05:31:15;;;;;;;15.50;9.45;;;7.40;1.00;;;;;;21179371;22;20481;-48
2024/03/17 05:41:15;;;;;;;14.77;9.18;;;7.40;1.00;;;;;;21243493;23;20180;-47
2024/03/17 05:51:16;;;;;;;15.63;9.02;;;7.40;1.00;;;;;;21160799;22;20034;-47
2024/03/17 06:01:17;;;;;;;14.10;9.25;;;7.40;1.00;;;;;;21305102;23;20045;-47
2024/03/17 06:11:17;;;;;;;14.88;9.15;;;7.30;1.00;;;;;;21352704;22;20061;-47
2024/03/17 06:21:18;;;;;;;16.90;10.40;;;7.40;1.00;;;;;;21321264;23;20444;-47
2024/03/17 06:31:19;;;;;;;14.27;8.73;;;7.50;1.00;;;;;;21279031;22;20110;-48
2024/03/17 06:41:19;;;;;;;12.73;8.88;;;7.50;1.00;;;;;;21259759;23;20859;-47
2024/03/17 06:51:20;;;;;;;16.15;9.35;;;7.60;1.00;;;;;;20983568;23;20558;-48
2024/03/17 07:01:20;;;;;;;15.93;9.60;;;7.70;1.00;;;;;;21091677;22;20060;-47
2024/03/17 07:11:23;;;;;;;13.83;9.40;;;7.70;1.00;;;;;;21205427;22;20053;-47
2024/03/17 07:21:24;;;;;;;14.88;10.07;;;7.80;1.00;;;;;;21370338;22;20466;-49
2024/03/17 07:31:25;;;;;;;15.93;9.85;;;8.00;1.00;;;;;;21201798;22;20048;-47
2024/03/17 07:41:26;;;;;;;16.07;10.93;;;8.10;1.00;;;;;;21280230;22;20041;-48
2024/03/17 07:51:27;;;;;;;16.17;10.60;;;8.30;1.00;;;;;;21175516;23;20508;-48
2024/03/17 08:01:27;;;;;;;15.48;10.15;;;8.50;1.00;;;;;;21308243;22;20037;-47
2024/03/17 08:11:28;;;;;;;14.88;10.10;;;8.60;1.00;;;;;;21218261;22;20054;-49
2024/03/17 08:21:29;;;;;;;15.93;11.20;;;8.70;1.00;;;;;;21192607;23;20038;-47
2024/03/17 08:31:30;;;;;;;16.83;10.23;;;8.80;1.00;;;;;;21095884;23;20409;-47
2024/03/17 08:51:45;;;;;;;15.13;10.18;;;9.30;1.00;;;;;;21402868;22;20044;-48
2024/03/17 09:01:46;;;;;;;16.85;10.40;;;9.60;1.00;;;;;;20990672;22;20053;-48
2024/03/17 09:11:47;;;;;;;15.43;10.18;;;9.60;1.00;;;;;;21212887;22;20056;-48
2024/03/17 09:21:47;;;;;;;16.55;10.07;;;9.70;1.00;;;;;;20971858;22;20049;-48
2024/03/17 09:31:49;;;;;;;14.20;9.40;;;9.90;1.00;;;;;;21174224;23;20392;-47
2024/03/17 09:41:50;;;;;;;16.40;9.75;;;9.90;1.00;;;;;;21147469;23;20281;-49
2024/03/17 09:51:54;;;;;;;13.38;9.15;;;9.90;1.00;;;;;;21140636;23;20447;-48
2024/03/17 10:01:55;;;;;;;14.23;9.20;;;10.00;1.00;;;;;;21166743;23;20481;-48
2024/03/17 10:11:56;;;;;;;13.05;8.77;;;10.30;1.00;;;;;;21211252;23;20045;-48
2024/03/17 10:32:15;;;;;;;12.10;8.32;;;11.00;1.00;;;;;;21496384;22;20025;-47
2024/03/17 10:53:27;;;;;;;14.52;8.88;;;11.70;1.00;;;;;;21132432;22;20042;-50
2024/03/17 11:03:31;;;;;;;12.63;7.90;;;11.80;1.00;;;;;;20914527;23;20021;-85
2024/03/17 11:13:56;;;;;;;12.52;8.48;;;12.00;1.00;;;;;;20942986;28;20029;-86
2024/03/17 11:23:59;;;;;;;11.13;8.13;;;11.80;1.00;;;;;;21410269;22;20075;-48
2024/03/17 11:44:29;;;;;;;13.73;8.13;;;12.10;1.00;;;;;;21420357;23;20099;-48
2024/03/17 11:54:37;;;;;;;12.00;8.55;;;12.30;1.00;;;;;;21106520;23;20075;-84
2024/03/17 12:04:42;;;;;;;11.73;8.25;;;12.30;1.00;;;;;;20820352;28;20025;-85
2024/03/17 12:14:47;;;;;;;12.25;7.90;;;12.60;1.00;;;;;;20811083;28;20034;-83
2024/03/17 12:24:58;;;;;;;12.98;8.48;;;12.70;1.00;;;;;;20881945;28;20009;-85
2024/03/17 12:34:59;;;;;;;11.82;8.18;;;12.80;1.00;;;;;;20915963;28;20044;-83
2024/03/17 12:45:10;;;;;;;11.75;7.90;;;12.70;1.00;;;;;;20963105;28;20017;-86
2024/03/17 13:16:13;;;;;;;11.23;8.55;;;12.80;1.00;;;;;;21056376;23;20038;-83
2024/03/17 13:26:50;;;;;;;12.70;8.55;;;12.90;1.00;;;;;;20882669;28;20064;-85
2024/03/17 13:48:03;;;;;;;11.57;7.27;;;13.30;1.00;;;;;;20546402;23;20066;-49
2024/03/17 14:08:29;;;;;;;10.25;6.93;;;13.50;1.00;;;;;;21379616;22;20025;-48
2024/03/17 14:18:35;;;;;;;9.75;6.22;;;13.60;1.00;;;;;;20966178;23;20042;-85
2024/03/17 14:28:36;;;;;;;10.65;7.18;;;14.10;1.00;;;;;;21203012;23;20117;-48
2024/03/17 14:38:38;;;;;;;11.23;7.00;;;14.10;1.00;;;;;;20882740;22;20049;-82
2024/03/17 14:48:47;;;;;;;14.02;7.85;;;13.80;1.00;;;;;;20850529;28;20432;-82
2024/03/17 14:59:20;;;;;;;10.95;7.07;;;13.50;1.00;;;;;;20820657;28;20060;-83
2024/03/17 15:09:33;;;;;;;11.30;7.85;;;13.50;1.00;;;;;;20716228;28;20128;-83
2024/03/17 15:19:41;;;;;;;12.23;8.43;;;13.40;1.00;;;;;;20825767;28;20041;-84
2024/03/17 15:29:49;;;;;;;10.70;7.43;;;13.50;1.00;;;;;;20762428;28;20029;-85
2024/03/17 15:39:55;;;;;;;13.10;7.50;;;13.60;1.00;;;;;;20806555;28;20049;-83
2024/03/17 15:49:59;;;;;;;10.65;6.93;;;13.60;1.00;;;;;;20853428;28;20041;-83
2024/03/17 16:00:15;;;;;;;11.95;6.53;;;13.60;1.00;;;;;;20813616;28;20025;-84
2024/03/17 16:10:21;;;;;;;12.60;7.30;;;13.60;1.00;;;;;;21302694;22;20045;-48
2024/03/17 16:20:47;;;;;;;9.43;6.28;;;13.50;1.00;;;;;;21229254;22;20071;-49
2024/03/17 16:30:48;;;;;;;13.50;7.43;;;13.40;1.00;;;;;;21245679;22;20052;-48
2024/03/17 16:40:50;;;;;;;12.02;7.00;;;13.20;1.00;;;;;;21228101;22;20070;-48
2024/03/17 16:50:50;;;;;;;12.75;7.65;;;13.10;1.00;;;;;;21183122;22;20315;-49
2024/03/17 17:11:16;;;;;;;17.98;11.18;;;12.70;1.00;;;;;;21381146;22;20072;-49
2024/03/17 17:21:24;;;;;;;18.90;12.77;;;12.30;11.30;;;;;;21225847;22;20080;-48
2024/03/17 17:31:26;;;;;;;20.35;13.90;;;12.00;43.40;;;;;;21240536;22;20060;-49
2024/03/17 17:41:27;;;;;;;22.23;13.90;;;11.70;81.10;;;;;;21308779;23;20086;-49
2024/03/17 17:51:27;;;;;;;21.67;15.20;;;11.50;99.90;;;;;;21165028;22;20131;-48
2024/03/17 18:01:28;;;;;;;24.60;15.80;;;11.50;99.90;;;;;;21188934;22;20045;-49
2024/03/17 18:11:31;;;;;;;24.07;16.73;;;11.40;99.90;;;;;;21099709;22;20461;-83
2024/03/17 18:32:36;;;;;;;18.98;12.88;;;11.30;99.90;;;;;;20786400;28;20042;-83
2024/03/17 18:42:38;;;;;;;19.15;12.60;;;11.30;99.90;;;;;;20753536;28;20091;-83
2024/03/17 18:52:55;;;;;;;18.23;11.90;;;11.40;99.90;;;;;;20785121;28;20069;-84
2024/03/17 19:03:14;;;;;;;19.73;12.37;;;11.40;99.90;;;;;;20716908;28;20038;-84
2024/03/17 19:13:17;;;;;;;24.60;15.88;;;11.40;99.90;;;;;;20643992;28;20048;-83
2024/03/17 19:23:26;;;;;;;24.48;14.90;;;11.30;99.90;;;;;;20653109;28;20019;-85
2024/03/17 19:33:33;;;;;;;21.25;13.63;;;11.20;99.90;;;;;;20678716;28;20054;-84
2024/03/17 19:43:39;;;;;;;23.00;14.97;;;11.20;99.90;;;;;;20662399;28;20071;-84
2024/03/17 19:53:44;;;;;;;20.90;13.13;;;11.20;99.90;;;;;;20655433;28;20066;-85
2024/03/17 20:03:46;;;;;;;16.92;11.00;;;11.10;99.90;;;;;;20625744;28;20030;-85
2024/03/17 20:13:50;;;;;;;16.83;9.90;;;11.20;99.90;;;;;;20642782;28;20042;-85
2024/03/17 20:24:41;;;;;;;22.88;14.52;;;11.10;99.90;;;;;;20684711;28;20038;-86
2024/03/17 20:35:26;;;;;;;21.63;14.20;;;11.10;99.90;;;;;;20427478;28;20050;-86
2024/03/17 20:45:43;;;;;;;23.73;14.63;;;11.00;99.90;;;;;;20549862;28;20095;-86
2024/03/17 20:56:12;;;;;;;18.25;12.70;;;11.10;99.90;;;;;;20548957;28;20039;-86
2024/03/17 21:06:25;;;;;;;19.48;12.00;;;11.00;99.90;;;;;;20869180;23;20045;-86
2024/03/17 21:26:29;;;;;;;14.88;9.30;;;11.10;99.90;;;;;;21091532;23;20493;-47
2024/03/17 21:36:30;;;;;;;10.32;7.72;;;11.10;99.90;;;;;;21228654;22;20041;-48
2024/03/17 21:46:30;;;;;;;11.80;7.53;;;11.20;99.90;;;;;;21281146;22;20296;-46
2024/03/17 21:56:31;;;;;;;14.25;8.45;;;11.10;99.90;;;;;;21195223;22;20115;-49
2024/03/17 22:06:32;;;;;;;14.68;9.65;;;11.10;99.90;;;;;;21247265;22;20089;-47
2024/03/17 22:16:33;;;;;;;15.30;11.15;;;11.10;1.00;;;;;;21246722;22;1378078;-48
2024/03/17 22:26:34;;;;;;;17.42;13.38;;;11.10;1.00;;;;;;21344257;22;20046;-49
2024/03/17 22:36:36;;;;;;;17.92;14.50;;;11.10;1.00;;;;;;21198432;22;20128;-57
2024/03/17 22:46:37;;;;;;;20.60;15.75;;;11.20;1.00;;;;;;21372281;22;20159;-47
2024/03/17 23:06:48;;;;;;;24.73;17.88;;;11.20;1.00;;;;;;21321916;22;20421;-47
2024/03/17 23:16:48;;;;;;;25.52;18.75;;;11.20;1.00;;;;;;21286358;22;20041;-48
2024/03/17 23:26:49;;;;;;;22.63;17.92;;;11.20;1.00;;;;;;21208612;22;20044;-47
2024/03/17 23:36:50;;;;;;;23.92;17.65;;;11.20;1.00;;;;;;21307810;22;20065;-47
2024/03/17 23:46:50;;;;;;;25.25;18.52;;;11.30;1.00;;;;;;21314136;22;20503;-50
2024/03/17 23:56:51;;;;;;;27.73;19.42;;;11.40;1.00;;;;;;21215021;22;20763;-49
